createdAt,value
2019-04-11T00:01:10.157Z,66.07
2019-04-11T00:03:57.965Z,66.27
2019-04-11T00:09:20.726Z,68.80
2019-04-11T00:11:50.337Z,69.94
2019-04-11T00:14:20.071Z,71.56
2019-04-11T00:16:50.233Z,74.38
2019-04-11T00:19:37.988Z,74.83
2019-04-11T00:22:25.762Z,75.82
2019-04-11T00:24:55.434Z,74.94
2019-04-11T00:27:24.631Z,74.49
2019-04-11T00:29:55.475Z,72.57
2019-04-11T00:32:44.136Z,71.88
2019-04-11T00:35:32.030Z,72.00
2019-04-11T00:38:01.420Z,73.30
2019-04-11T00:40:30.667Z,74.50
2019-04-11T00:42:59.162Z,75.68
2019-04-11T00:45:47.694Z,74.87
2019-04-11T00:48:17.601Z,73.90
2019-04-11T00:51:07.606Z,72.56
2019-04-11T00:56:12.331Z,69.35
2019-04-11T00:59:00.620Z,67.74
2019-04-11T01:01:29.145Z,67.79
2019-04-11T01:06:45.150Z,73.99
2019-04-11T01:09:13.602Z,73.08
2019-04-11T01:12:02.398Z,75.48
2019-04-11T01:14:32.034Z,74.12
2019-04-11T01:19:51.163Z,76.90
2019-04-11T01:22:22.129Z,76.85
2019-04-11T01:28:04.694Z,75.66
2019-04-11T01:34:10.628Z,79.13
2019-04-11T01:36:59.657Z,79.15
2019-04-11T01:39:47.679Z,79.99
2019-04-11T01:45:45.559Z,78.82
2019-04-11T01:51:23.683Z,80.43
2019-04-11T01:53:52.212Z,81.34
2019-04-11T01:59:13.929Z,81.68
2019-04-11T02:02:01.757Z,82.26
2019-04-11T02:04:49.335Z,82.00
2019-04-11T02:07:37.104Z,81.75
2019-04-11T02:10:45.482Z,82.18
2019-04-11T02:13:34.177Z,82.45
2019-04-11T02:19:32.369Z,82.52
2019-04-11T02:22:20.181Z,83.08
2019-04-11T02:25:08.163Z,83.01
2019-04-11T02:30:47.680Z,83.95
2019-04-11T02:33:17.715Z,84.35
2019-04-11T02:36:27.095Z,84.47
2019-04-11T02:42:45.497Z,83.60
2019-04-11T02:46:08.790Z,82.54
2019-04-11T02:48:24.538Z,83.43
2019-04-11T02:51:14.629Z,84.11
2019-04-11T02:53:45.171Z,84.25
2019-04-11T03:02:19.386Z,84.86
2019-04-11T03:05:07.636Z,84.83
2019-04-11T03:07:57.985Z,85.19
2019-04-11T03:10:27.131Z,85.09
2019-04-11T03:13:38.083Z,85.51
2019-04-11T03:16:38.119Z,84.98
2019-04-11T03:19:47.741Z,84.40
2019-04-11T03:22:26.952Z,85.22
2019-04-11T03:28:14.917Z,86.24
2019-04-11T03:39:56.835Z,85.70
2019-04-11T03:43:04.315Z,85.83
2019-04-11T03:46:15.952Z,85.74
2019-04-11T03:54:36.262Z,85.95
2019-04-11T04:00:35.424Z,87.17
2019-04-11T04:03:01.505Z,86.60
2019-04-11T04:06:10.153Z,86.12
2019-04-11T04:09:20.898Z,86.18
2019-04-11T04:18:21.210Z,85.77
2019-04-11T04:21:31.188Z,86.15
2019-04-11T04:24:03.226Z,86.36
2019-04-11T04:27:10.421Z,86.05
2019-04-11T04:32:33.781Z,85.56
2019-04-11T04:41:39.378Z,77.59
2019-04-11T04:44:24.234Z,75.75
2019-04-11T04:49:28.167Z,73.97
2019-04-11T04:51:57.153Z,73.07
2019-04-11T04:54:25.700Z,72.72
2019-04-11T04:56:54.661Z,71.84
2019-04-11T04:59:44.816Z,72.30
2019-04-11T05:02:14.976Z,71.22
2019-04-11T05:04:45.779Z,71.63
2019-04-11T05:07:38.000Z,71.87
2019-04-11T05:10:44.869Z,71.71
2019-04-11T05:16:16.804Z,70.64
2019-04-11T05:21:12.779Z,67.75
2019-04-11T05:23:41.881Z,66.92
2019-04-11T05:26:29.489Z,65.24
2019-04-11T05:28:57.944Z,64.81
2019-04-11T05:31:46.977Z,64.00
2019-04-11T05:34:16.132Z,64.28
2019-04-11T05:36:44.995Z,64.71
2019-04-11T05:39:16.002Z,64.90
2019-04-11T05:41:46.807Z,63.67
2019-04-11T05:44:15.136Z,62.44
2019-04-11T05:46:52.378Z,62.82
2019-04-11T05:52:22.072Z,63.25
2019-04-11T06:01:14.434Z,63.64
2019-04-11T06:03:45.330Z,63.26
2019-04-11T06:12:17.166Z,63.79
2019-04-11T06:15:05.989Z,64.47
2019-04-11T06:17:34.479Z,64.68
2019-04-11T06:20:41.389Z,64.74
2019-04-11T06:23:29.627Z,63.77
2019-04-11T06:26:18.747Z,63.37
2019-04-11T06:31:46.053Z,63.74
2019-04-11T06:34:15.533Z,63.67
2019-04-11T06:37:03.829Z,63.74
2019-04-11T06:39:51.610Z,63.89
2019-04-11T06:42:39.351Z,62.67
2019-04-11T06:45:48.113Z,63.08
2019-04-11T06:48:38.067Z,63.14
2019-04-11T06:51:46.343Z,63.31
2019-04-11T06:54:33.942Z,61.96
2019-04-11T07:08:02.087Z,60.35
2019-04-11T07:10:51.082Z,59.59
2019-04-11T07:13:39.955Z,59.34
2019-04-11T07:16:09.042Z,58.26
2019-04-11T07:18:57.737Z,58.03
2019-04-11T07:24:34.621Z,58.26
2019-04-11T07:30:11.454Z,57.40
2019-04-11T07:32:40.625Z,55.43
2019-04-11T07:35:29.426Z,56.75
2019-04-11T07:37:58.239Z,57.21
2019-04-11T07:40:47.570Z,56.33
2019-04-11T07:43:18.510Z,58.40
2019-04-11T07:46:05.482Z,57.14
2019-04-11T07:48:33.930Z,57.83
2019-04-11T07:51:40.967Z,56.38
2019-04-11T07:54:49.331Z,56.05
2019-04-11T08:00:17.146Z,55.08
2019-04-11T08:03:06.380Z,54.63
2019-04-11T08:06:15.533Z,54.31
2019-04-11T08:14:46.461Z,53.91
2019-04-11T08:17:39.056Z,52.65
2019-04-11T08:20:44.162Z,53.61
2019-04-11T08:23:52.541Z,56.50
2019-04-11T08:26:59.408Z,53.46
2019-04-11T08:32:36.130Z,53.52
2019-04-11T08:35:44.448Z,54.10
2019-04-11T08:38:53.064Z,52.73
2019-04-11T08:41:42.209Z,52.10
2019-04-11T08:44:11.923Z,54.31
2019-04-11T08:49:50.185Z,55.38
2019-04-11T08:52:38.519Z,53.50
2019-04-11T08:55:53.603Z,52.91
2019-04-11T09:01:25.462Z,51.32
2019-04-11T09:04:14.972Z,51.57
2019-04-11T09:15:10.794Z,50.38
2019-04-11T09:25:54.698Z,48.07
2019-04-11T09:28:43.925Z,49.30
2019-04-11T09:31:51.722Z,46.70
2019-04-11T09:34:39.311Z,47.64
2019-04-11T09:42:43.011Z,50.38
2019-04-11T09:45:52.601Z,48.26
2019-04-11T09:48:42.293Z,49.03
2019-04-11T09:51:49.919Z,46.81
2019-04-11T09:54:37.651Z,47.24
2019-04-11T10:00:55.007Z,46.63
2019-04-11T10:06:34.364Z,45.53
2019-04-11T10:15:47.247Z,46.06
2019-04-11T10:18:38.686Z,44.73
2019-04-11T10:24:01.051Z,44.70
2019-04-11T10:29:39.782Z,45.85
2019-04-11T10:35:19.025Z,46.13
2019-04-11T10:46:15.414Z,44.62
2019-04-11T10:49:03.825Z,43.81
2019-04-11T10:51:51.433Z,43.59
2019-04-11T10:54:19.889Z,44.37
2019-04-11T11:02:31.826Z,43.21
2019-04-11T11:05:01.074Z,45.32
2019-04-11T11:07:50.954Z,44.01
2019-04-11T11:10:39.730Z,42.50
2019-04-11T11:13:28.352Z,43.75
2019-04-11T11:26:35.632Z,44.04
2019-04-11T11:29:45.216Z,42.96
2019-04-11T11:37:47.264Z,42.70
2019-04-11T11:43:25.263Z,42.16
2019-04-11T11:46:14.129Z,42.47
2019-04-11T11:54:17.580Z,42.22
2019-04-11T11:57:06.642Z,41.07
2019-04-11T11:59:55.158Z,42.59
2019-04-11T12:03:03.499Z,41.35
2019-04-11T12:08:26.553Z,41.39
2019-04-11T12:14:04.071Z,44.17
2019-04-11T12:16:59.642Z,41.53
2019-04-11T12:20:09.681Z,41.45
2019-04-11T12:25:41.222Z,40.21
2019-04-11T12:28:29.754Z,40.75
2019-04-11T12:33:57.706Z,41.78
2019-04-11T12:39:53.632Z,37.68
2019-04-11T12:45:51.211Z,40.16
2019-04-11T12:51:48.726Z,37.83
2019-04-11T12:57:25.422Z,38.26
2019-04-11T13:00:12.998Z,38.51
2019-04-11T13:03:00.634Z,38.96
2019-04-11T13:06:09.009Z,40.04
2019-04-11T13:14:15.140Z,40.61
2019-04-11T13:19:51.827Z,39.73
2019-04-11T13:25:49.378Z,40.88
2019-04-11T13:28:37.168Z,37.68
2019-04-11T13:31:24.772Z,37.75
2019-04-11T13:37:01.955Z,37.08
2019-04-11T13:39:49.616Z,36.62
2019-04-11T13:42:37.220Z,38.24
2019-04-11T13:45:45.592Z,37.70
2019-04-11T13:48:33.555Z,38.54
2019-04-11T13:54:10.316Z,39.76
2019-04-11T13:56:57.901Z,38.53
2019-04-11T13:59:45.543Z,38.37
2019-04-11T14:02:50.599Z,38.76
2019-04-11T14:16:19.062Z,39.04
2019-04-11T14:19:07.190Z,38.83
2019-04-11T14:22:15.765Z,37.55
2019-04-11T14:25:03.409Z,37.55
2019-04-11T14:30:52.471Z,38.57
2019-04-11T14:39:09.001Z,37.76
2019-04-11T14:41:56.589Z,37.14
2019-04-11T14:53:28.307Z,38.88
2019-04-11T14:56:15.885Z,38.21
2019-04-11T14:59:03.542Z,37.05
2019-04-11T15:04:43.714Z,37.75
2019-04-11T15:10:18.703Z,36.90
2019-04-11T15:16:14.791Z,37.07
2019-04-11T15:21:51.538Z,37.71
2019-04-11T15:27:28.293Z,39.31
2019-04-11T15:33:05.007Z,38.16
2019-04-11T15:39:00.743Z,38.30
2019-04-11T15:44:37.427Z,39.61
2019-04-11T15:47:25.000Z,39.60
2019-04-11T15:50:12.616Z,39.00
2019-04-11T15:56:08.630Z,40.56
2019-04-11T16:01:45.315Z,40.34
2019-04-11T16:04:32.957Z,40.31
2019-04-11T16:07:41.368Z,41.47
2019-04-11T16:10:49.740Z,40.93
2019-04-11T16:16:16.889Z,42.32
2019-04-11T16:19:04.465Z,40.51
2019-04-11T16:21:54.685Z,40.36
2019-04-11T16:27:49.895Z,41.27
2019-04-11T16:30:58.267Z,39.83
2019-04-11T16:36:40.714Z,40.71
2019-04-11T16:42:17.355Z,41.38
2019-04-11T16:45:04.997Z,41.84
2019-04-11T16:50:32.136Z,41.06
2019-04-11T16:53:00.595Z,41.70
2019-04-11T16:55:48.444Z,41.55
2019-04-11T16:58:19.545Z,41.75
2019-04-11T17:00:52.127Z,41.74
2019-04-11T17:03:17.496Z,41.78
2019-04-11T17:06:05.142Z,43.39
2019-04-11T17:08:56.103Z,42.56
2019-04-11T17:11:26.732Z,42.72
2019-04-11T17:13:56.990Z,41.53
2019-04-11T17:16:23.519Z,42.34
2019-04-11T17:18:52.051Z,42.79
2019-04-11T17:24:08.047Z,42.19
2019-04-11T17:26:55.713Z,43.40
2019-04-11T17:29:25.010Z,43.31
2019-04-11T17:37:36.703Z,44.65
2019-04-11T17:40:45.073Z,45.66
2019-04-11T17:43:32.758Z,46.09
2019-04-11T17:46:20.403Z,46.32
2019-04-11T17:48:50.402Z,46.73
2019-04-11T17:51:19.130Z,46.72
2019-04-11T17:53:47.580Z,46.48
2019-04-11T17:56:16.119Z,47.13
2019-04-11T17:58:44.590Z,47.81
2019-04-11T18:01:13.111Z,48.39
2019-04-11T18:03:42.111Z,48.28
2019-04-11T18:06:11.773Z,48.80
2019-04-11T18:08:59.462Z,49.15
2019-04-11T18:11:47.235Z,49.00
2019-04-11T18:17:09.457Z,49.76
2019-04-11T18:19:38.014Z,50.15
2019-04-11T18:25:14.839Z,54.83
2019-04-11T18:27:43.286Z,54.26
2019-04-11T18:30:53.763Z,54.19
2019-04-11T18:33:21.884Z,55.68
2019-04-11T18:35:50.406Z,55.28
2019-04-11T18:38:18.896Z,53.90
2019-04-11T18:41:06.611Z,54.31
2019-04-11T18:46:29.773Z,52.19
2019-04-11T18:49:19.443Z,51.09
2019-04-11T18:51:47.617Z,51.06
2019-04-11T18:54:16.075Z,51.37
2019-04-11T18:56:44.532Z,51.09
2019-04-11T19:04:58.879Z,52.16
2019-04-11T19:07:28.202Z,52.63
2019-04-11T19:09:57.578Z,53.33
2019-04-11T19:15:00.433Z,54.19
2019-04-11T19:17:48.230Z,54.11
2019-04-11T19:20:56.584Z,54.40
2019-04-11T19:25:59.169Z,52.54
2019-04-11T19:28:27.618Z,52.63
2019-04-11T19:31:15.290Z,52.59
2019-04-11T19:33:43.766Z,52.14
2019-04-11T19:36:12.852Z,52.83
2019-04-11T19:41:35.606Z,53.74
2019-04-11T19:44:44.016Z,54.24
2019-04-11T19:47:12.462Z,54.93
2019-04-11T19:49:40.911Z,55.20
2019-04-11T19:54:43.466Z,54.46
2019-04-11T19:57:11.951Z,54.85
2019-04-11T19:59:59.718Z,53.83
2019-04-11T20:02:47.318Z,53.17
2019-04-11T20:05:34.909Z,52.71
2019-04-11T20:08:22.582Z,52.58
2019-04-11T20:10:51.026Z,52.96
2019-04-11T20:13:38.906Z,53.24
2019-04-11T20:16:07.352Z,53.31
2019-04-11T20:18:35.798Z,53.80
2019-04-11T20:21:23.773Z,54.78
2019-04-11T20:23:53.774Z,54.21
2019-04-11T20:26:41.579Z,54.58
2019-04-11T20:29:10.030Z,55.31
2019-04-11T20:31:57.773Z,55.77
2019-04-11T20:34:45.366Z,56.54
2019-04-11T20:37:13.854Z,56.43
2019-04-11T20:39:46.288Z,56.57
2019-04-11T20:42:12.471Z,56.89
2019-04-11T20:47:16.790Z,56.81
2019-04-11T20:52:20.898Z,56.67
2019-04-11T20:54:49.344Z,57.13
2019-04-11T20:57:25.690Z,57.01
2019-04-11T20:59:48.004Z,56.82
2019-04-11T21:02:35.794Z,56.80
2019-04-11T21:08:18.338Z,57.63
2019-04-11T21:11:06.114Z,58.35
2019-04-11T21:13:38.164Z,58.42
2019-04-11T21:16:23.972Z,58.50
2019-04-11T21:21:26.660Z,58.68
2019-04-11T21:23:55.166Z,59.18
2019-04-11T21:26:23.600Z,58.87
2019-04-11T21:28:52.050Z,58.86
2019-04-11T21:31:20.496Z,59.31
2019-04-11T21:34:08.231Z,59.07
2019-04-11T21:36:36.676Z,59.35
2019-04-11T21:39:45.089Z,59.75
2019-04-11T21:42:13.537Z,59.81
2019-04-11T21:44:41.985Z,59.74
2019-04-11T21:47:29.903Z,59.42
2019-04-11T21:49:58.350Z,59.64
2019-04-11T21:55:20.683Z,59.25
2019-04-11T21:58:08.530Z,59.62
2019-04-11T22:01:16.874Z,59.71
2019-04-11T22:04:27.164Z,59.71
2019-04-11T22:07:35.715Z,59.54
2019-04-11T22:10:44.115Z,60.15
2019-04-11T22:13:12.576Z,59.94
2019-04-11T22:16:00.262Z,60.30
2019-04-11T22:18:48.025Z,60.68
2019-04-11T22:21:16.518Z,60.61
2019-04-11T22:23:48.995Z,60.82
2019-04-11T22:26:15.146Z,61.34
2019-04-11T22:28:43.656Z,61.41
2019-04-11T22:31:12.104Z,61.33
2019-04-11T22:37:09.574Z,62.07
2019-04-11T22:39:38.088Z,61.44
2019-04-11T22:42:25.898Z,61.36
2019-04-11T22:44:54.351Z,61.11
2019-04-11T22:47:22.807Z,60.83
2019-04-11T22:52:25.261Z,61.03
2019-04-11T22:57:34.198Z,61.03
2019-04-11T23:00:02.712Z,61.23
2019-04-11T23:02:50.317Z,61.18
2019-04-11T23:05:18.766Z,60.62
2019-04-11T23:07:48.299Z,61.48
2019-04-11T23:10:36.607Z,61.31
2019-04-11T23:13:05.134Z,60.97
2019-04-11T23:15:33.574Z,60.61
2019-04-11T23:20:35.678Z,61.47
2019-04-11T23:23:04.134Z,61.93
2019-04-11T23:25:32.636Z,62.37
2019-04-11T23:28:01.076Z,62.03
2019-04-11T23:30:29.518Z,61.79
2019-04-11T23:35:51.791Z,60.57
2019-04-11T23:41:14.662Z,59.79
2019-04-11T23:44:02.510Z,60.45
2019-04-11T23:46:30.956Z,60.39
2019-04-11T23:48:59.410Z,59.86
2019-04-11T23:51:27.894Z,59.64
2019-04-11T23:54:22.959Z,59.82
